createdAt,value
2024-05-09T00:01:12.012Z,100675.87
2024-05-09T00:04:13.981Z,100673.50
2024-05-09T00:07:14.973Z,100675.45
2024-05-09T00:10:25.103Z,100675.47
2024-05-09T00:13:29.972Z,100677.80
2024-05-09T00:16:30.999Z,100674.75
2024-05-09T00:19:32.262Z,100675.55
2024-05-09T00:22:33.008Z,100678.57
2024-05-09T00:25:34.052Z,100680.70
2024-05-09T00:28:28.053Z,100683.77
2024-05-09T00:31:09.119Z,100678.28
2024-05-09T00:33:56.236Z,100676.88
2024-05-09T00:36:44.048Z,100680.55
2024-05-09T00:39:45.019Z,100683.07
2024-05-09T00:42:51.058Z,100682.86
2024-05-09T00:45:52.051Z,100682.45
2024-05-09T00:48:54.151Z,100681.37
2024-05-09T00:51:56.091Z,100680.35
2024-05-09T00:54:57.076Z,100680.58
2024-05-09T00:57:58.088Z,100675.91
2024-05-09T01:00:59.107Z,100674.38
2024-05-09T01:04:00.183Z,100672.28
2024-05-09T01:07:01.133Z,100666.88
2024-05-09T01:10:04.173Z,100661.64
2024-05-09T01:13:06.493Z,100665.16
2024-05-09T01:16:07.106Z,100669.30
2024-05-09T01:19:08.232Z,100667.31
2024-05-09T01:22:11.166Z,100664.04
2024-05-09T01:25:12.120Z,100659.39
2024-05-09T01:28:13.173Z,100661.70
2024-05-09T01:31:14.113Z,100664.36
2024-05-09T01:34:15.227Z,100669.60
2024-05-09T01:37:16.163Z,100674.11
2024-05-09T01:40:22.020Z,100676.83
2024-05-09T01:43:26.178Z,100677.70
2024-05-09T01:46:27.160Z,100676.54
2024-05-09T01:49:28.296Z,100675.48
2024-05-09T01:52:29.189Z,100676.02
2024-05-09T01:55:30.175Z,100687.65
2024-05-09T01:58:31.168Z,100696.84
2024-05-09T02:01:55.603Z,100705.92
2024-05-09T02:04:57.283Z,100705.82
2024-05-09T02:07:58.279Z,100708.21
2024-05-09T02:11:00.407Z,100703.58
2024-05-09T02:14:01.342Z,100703.69
2024-05-09T02:16:55.247Z,100705.00
2024-05-09T02:19:56.271Z,100708.89
2024-05-09T02:22:57.316Z,100708.05
2024-05-09T02:25:58.317Z,100709.87
2024-05-09T02:28:59.310Z,100708.42
2024-05-09T02:32:00.444Z,100706.60
2024-05-09T02:35:01.308Z,100705.20
2024-05-09T02:38:02.366Z,100705.36
2024-05-09T02:41:03.314Z,100709.35
2024-05-09T02:44:04.315Z,100713.70
2024-05-09T02:47:05.480Z,100709.79
2024-05-09T02:50:08.080Z,100711.35
2024-05-09T02:53:10.038Z,100712.68
2024-05-09T02:56:11.356Z,100719.03
2024-05-09T02:59:12.394Z,100715.65
2024-05-09T03:02:13.423Z,100720.38
2024-05-09T03:05:14.356Z,100723.73
2024-05-09T03:08:15.463Z,100726.44
2024-05-09T03:11:16.420Z,100726.76
2024-05-09T03:14:17.353Z,100724.88
2024-05-09T03:17:18.472Z,100723.98
2024-05-09T03:20:24.061Z,100727.98
2024-05-09T03:23:21.396Z,100728.29
2024-05-09T03:26:09.411Z,100726.95
2024-05-09T03:29:10.427Z,100721.60
2024-05-09T03:32:13.466Z,100719.85
2024-05-09T03:35:14.430Z,100718.20
2024-05-09T03:38:15.705Z,100713.55
2024-05-09T03:41:16.463Z,100714.81
2024-05-09T03:44:21.468Z,100720.21
2024-05-09T03:47:22.631Z,100723.64
2024-05-09T03:50:22.748Z,100723.35
2024-05-09T03:53:30.460Z,100727.35
2024-05-09T03:56:31.519Z,100724.36
2024-05-09T03:59:32.539Z,100723.39
2024-05-09T04:02:33.555Z,100721.81
2024-05-09T04:05:34.972Z,100727.51
2024-05-09T04:08:35.572Z,100730.56
2024-05-09T04:11:36.558Z,100736.66
2024-05-09T04:14:37.530Z,100741.26
2024-05-09T04:17:38.630Z,100738.67
2024-05-09T04:20:41.059Z,100737.80
2024-05-09T04:23:42.533Z,100741.28
2024-05-09T04:26:43.582Z,100743.74
2024-05-09T04:29:44.513Z,100744.73
2024-05-09T04:32:45.647Z,100742.60
2024-05-09T04:35:48.515Z,100736.83
2024-05-09T04:38:49.538Z,100734.98
2024-05-09T04:41:50.559Z,100729.92
2024-05-09T04:44:52.496Z,100727.79
2024-05-09T04:47:54.815Z,100731.42
2024-05-09T04:50:55.610Z,100731.27
2024-05-09T04:53:56.546Z,100734.08
2024-05-09T04:56:57.579Z,100733.32
2024-05-09T04:59:58.588Z,100737.10
2024-05-09T05:02:59.859Z,100737.67
2024-05-09T05:06:00.632Z,100737.70
2024-05-09T05:09:01.599Z,100736.52
2024-05-09T05:12:02.740Z,100735.72
2024-05-09T05:15:03.624Z,100741.66
2024-05-09T05:18:04.933Z,100742.27
2024-05-09T05:21:05.833Z,100740.20
2024-05-09T05:24:06.606Z,100738.09
2024-05-09T05:27:07.642Z,100734.93
2024-05-09T05:30:14.715Z,100732.41
2024-05-09T05:33:20.101Z,100731.23
2024-05-09T05:36:21.639Z,100730.23
2024-05-09T05:39:22.662Z,100730.48
2024-05-09T05:42:24.672Z,100726.52
2024-05-09T05:45:25.681Z,100718.52
2024-05-09T05:48:27.837Z,100715.10
2024-05-09T05:51:28.658Z,100715.71
2024-05-09T05:54:29.711Z,100715.02
2024-05-09T05:57:30.679Z,100717.91
2024-05-09T06:00:38.343Z,100724.10
2024-05-09T06:03:40.923Z,100721.95
2024-05-09T06:06:41.743Z,100724.33
2024-05-09T06:09:43.435Z,100727.75
2024-05-09T06:12:44.766Z,100728.26
2024-05-09T06:15:45.762Z,100724.40
2024-05-09T06:18:47.023Z,100720.93
2024-05-09T06:21:48.719Z,100720.48
2024-05-09T06:24:49.762Z,100722.42
2024-05-09T06:27:50.776Z,100721.23
2024-05-09T06:30:51.766Z,100721.74
2024-05-09T06:33:53.977Z,100721.42
2024-05-09T06:36:54.753Z,100722.32
2024-05-09T06:39:55.783Z,100720.26
2024-05-09T06:42:56.780Z,100722.40
2024-05-09T06:45:58.852Z,100718.98
2024-05-09T06:48:59.978Z,100723.73
2024-05-09T06:52:00.844Z,100721.67
2024-05-09T06:55:01.842Z,100723.14
2024-05-09T06:58:02.889Z,100722.93
2024-05-09T07:01:03.888Z,100722.31
2024-05-09T07:04:05.110Z,100719.16
2024-05-09T07:07:06.934Z,100720.15
2024-05-09T07:10:10.042Z,100724.63
2024-05-09T07:13:13.227Z,100723.33
2024-05-09T07:16:13.890Z,100727.77
2024-05-09T07:19:15.148Z,100732.34
2024-05-09T07:22:15.860Z,100732.64
2024-05-09T07:25:17.343Z,100734.45
2024-05-09T07:28:17.989Z,100734.23
2024-05-09T07:31:19.046Z,100729.83
2024-05-09T07:34:20.247Z,100733.33
2024-05-09T07:37:20.935Z,100730.17
2024-05-09T07:40:31.550Z,100724.36
2024-05-09T07:43:35.919Z,100724.38
2024-05-09T07:47:47.286Z,100728.20
2024-05-09T07:51:47.587Z,100728.30
2024-05-09T07:53:38.373Z,100729.41
2024-05-09T07:56:40.163Z,100728.19
2024-05-09T07:59:40.959Z,100718.26
2024-05-09T08:02:41.983Z,100719.16
2024-05-09T08:05:45.054Z,100723.96
2024-05-09T08:08:45.976Z,100721.35
2024-05-09T08:11:48.028Z,100717.70
2024-05-09T08:14:48.983Z,100721.92
2024-05-09T08:17:50.176Z,100722.09
2024-05-09T08:20:55.036Z,100716.58
2024-05-09T08:23:56.061Z,100716.30
2024-05-09T13:02:51.869Z,100581.04
2024-05-09T13:05:52.797Z,100580.83
2024-05-09T13:08:54.824Z,100580.02
2024-05-09T13:11:55.842Z,100579.48
2024-05-09T13:14:57.724Z,100580.63
2024-05-09T13:18:02.015Z,100580.50
2024-05-09T13:21:03.680Z,100582.25
2024-05-09T13:23:59.257Z,100580.09
2024-05-09T13:27:00.709Z,100581.36
2024-05-09T13:30:03.935Z,100578.31
2024-05-09T13:33:07.327Z,100574.17
2024-05-09T13:36:08.779Z,100574.08
2024-05-09T13:39:10.766Z,100567.47
2024-05-09T13:42:11.768Z,100564.55
2024-05-09T13:45:12.923Z,100568.92
2024-05-09T13:48:15.948Z,100567.36
2024-05-09T13:51:16.843Z,100567.34
2024-05-09T13:54:21.169Z,100565.36
2024-05-09T13:57:24.789Z,100568.13
2024-05-09T14:00:38.007Z,100574.95
2024-05-09T14:03:45.906Z,100575.81
2024-05-09T14:06:46.867Z,100570.95
2024-05-09T14:09:47.862Z,100572.80
2024-05-09T14:12:48.901Z,100574.42
2024-05-09T14:15:49.935Z,100568.13
2024-05-09T14:18:50.900Z,100568.18
2024-05-09T14:21:51.868Z,100570.91
2024-05-09T14:24:52.849Z,100571.54
2024-05-09T14:27:54.085Z,100570.56
2024-05-09T14:30:55.851Z,100567.44
2024-05-09T14:33:57.192Z,100564.58
2024-05-09T14:36:57.931Z,100565.11
2024-05-09T14:39:58.905Z,100566.20
2024-05-09T14:43:02.553Z,100562.50
2024-05-09T14:45:57.008Z,100558.50
2024-05-09T14:48:45.010Z,100559.11
2024-05-09T14:51:46.930Z,100560.13
2024-05-09T14:54:49.214Z,100556.04
2024-05-09T14:57:52.981Z,100556.73
2024-05-09T15:00:56.046Z,100557.41
2024-05-09T15:03:57.126Z,100556.77
2024-05-09T15:06:57.978Z,100558.54
2024-05-09T15:09:58.952Z,100560.90
2024-05-09T15:12:59.985Z,100562.23
2024-05-09T15:16:00.992Z,100561.77
2024-05-09T15:19:02.193Z,100559.41
2024-05-09T15:22:02.990Z,100556.77
2024-05-09T15:25:04.028Z,100553.85
2024-05-09T15:28:05.207Z,100552.85
2024-05-09T15:31:06.083Z,100552.09
2024-05-09T15:34:07.087Z,100556.60
2024-05-09T15:37:08.022Z,100557.59
2024-05-09T15:40:15.387Z,100557.84
2024-05-09T15:43:23.020Z,100557.89
2024-05-09T15:46:25.096Z,100560.71
2024-05-09T15:49:27.210Z,100563.83
2024-05-09T15:52:31.013Z,100566.36
2024-05-09T15:55:32.019Z,100565.91
2024-05-09T15:58:33.032Z,100565.61
2024-05-09T16:01:35.147Z,100564.89
2024-05-09T16:04:36.280Z,100568.11
2024-05-09T16:07:37.100Z,100572.27
2024-05-09T16:10:39.250Z,100573.94
2024-05-09T16:18:39.167Z,100575.84
2024-05-09T16:21:40.153Z,100574.66
2024-05-09T16:24:41.219Z,100576.81
2024-05-09T16:27:42.248Z,100578.45
2024-05-09T16:30:43.204Z,100577.64
2024-05-09T16:33:44.414Z,100577.72
2024-05-09T16:36:46.246Z,100581.21
2024-05-09T16:39:47.187Z,100584.42
2024-05-09T16:42:48.180Z,100585.56
2024-05-09T16:45:52.184Z,100592.80
2024-05-09T16:48:53.287Z,100596.13
2024-05-09T16:51:54.185Z,100599.42
2024-05-09T16:54:55.298Z,100604.86
2024-05-09T16:57:56.311Z,100608.00
2024-05-09T17:00:57.305Z,100611.43
2024-05-09T17:03:58.771Z,100611.31
2024-05-09T17:07:00.213Z,100610.66
2024-05-09T17:10:02.411Z,100615.77
2024-05-09T17:13:05.447Z,100617.42
2024-05-09T17:16:07.264Z,100617.23
2024-05-09T17:19:08.311Z,100622.29
2024-05-09T17:22:09.474Z,100628.91
2024-05-09T17:25:10.308Z,100625.94
2024-05-09T17:28:13.479Z,100629.71
2024-05-09T17:31:15.292Z,100630.30
2024-05-09T17:34:16.394Z,100633.11
2024-05-09T17:37:17.282Z,100635.34
2024-05-09T17:40:27.123Z,100638.20
2024-05-09T17:43:32.386Z,100639.64
2024-05-09T17:46:33.340Z,100639.41
2024-05-09T17:49:35.385Z,100648.21
2024-05-09T17:52:36.308Z,100647.60
2024-05-09T17:55:37.402Z,100648.23
2024-05-09T17:58:40.323Z,100653.41
2024-05-09T18:01:41.406Z,100650.05
2024-05-09T18:04:42.485Z,100655.76
2024-05-09T18:07:43.323Z,100656.21
2024-05-09T18:10:44.631Z,100660.89
2024-05-09T18:13:46.321Z,100663.38
2024-05-09T18:16:47.326Z,100665.71
2024-05-09T18:19:49.427Z,100665.39
2024-05-09T18:22:50.366Z,100664.87
2024-05-09T18:25:53.348Z,100662.58
2024-05-09T18:28:55.396Z,100664.34
2024-05-09T18:31:56.379Z,100669.59
2024-05-09T18:34:57.432Z,100671.17
2024-05-09T18:37:58.389Z,100674.70
2024-05-09T18:40:59.485Z,100675.73
2024-05-09T18:44:03.830Z,100679.59
2024-05-09T18:47:04.374Z,100676.48
2024-05-09T18:50:09.211Z,100681.90
2024-05-09T18:53:16.864Z,100676.48
2024-05-09T18:56:20.440Z,100681.06
2024-05-09T18:59:21.746Z,100684.93
2024-05-09T19:02:22.637Z,100688.98
2024-05-09T19:05:26.043Z,100693.15
2024-05-09T19:08:26.433Z,100693.17
2024-05-09T19:11:27.528Z,100695.36
2024-05-09T19:14:28.455Z,100694.83
2024-05-09T19:17:29.543Z,100699.21
2024-05-09T19:20:34.496Z,100703.52
2024-05-09T19:23:44.309Z,100704.98
2024-05-09T19:26:51.483Z,100701.11
2024-05-09T19:29:54.703Z,100700.83
2024-05-09T19:32:56.564Z,100702.40
2024-05-09T19:35:57.516Z,100706.30
2024-05-09T19:38:58.522Z,100711.52
2024-05-09T19:41:59.515Z,100712.61
2024-05-09T19:45:00.536Z,100708.38
2024-05-09T19:48:01.828Z,100709.05
2024-05-09T19:51:02.560Z,100708.98
2024-05-09T19:54:03.533Z,100708.27
2024-05-09T19:57:04.545Z,100710.63
2024-05-09T20:00:06.096Z,100708.48
2024-05-09T20:03:06.903Z,100713.13
2024-05-09T20:06:07.581Z,100714.35
2024-05-09T20:09:08.605Z,100719.33
2024-05-09T20:12:09.582Z,100720.27
2024-05-09T20:15:10.618Z,100722.80
2024-05-09T20:18:11.856Z,100726.29
2024-05-09T20:21:13.679Z,100727.54
2024-05-09T20:24:07.703Z,100722.06
2024-05-09T20:27:08.627Z,100724.46
2024-05-09T20:30:12.278Z,100722.73
2024-05-09T20:33:16.625Z,100730.33
2024-05-09T20:36:18.623Z,100735.86
2024-05-09T20:39:19.608Z,100736.09
2024-05-09T20:42:20.916Z,100736.98
2024-05-09T20:45:21.644Z,100739.27
2024-05-09T20:48:22.824Z,100739.95
2024-05-09T20:51:23.686Z,100739.56
2024-05-09T20:54:25.671Z,100742.30
2024-05-09T20:57:26.687Z,100746.31
2024-05-09T21:00:26.182Z,100746.27
2024-05-09T21:03:36.836Z,100748.23
2024-05-09T21:06:37.796Z,100750.86
2024-05-09T21:09:38.757Z,100750.56
2024-05-09T21:12:39.753Z,100753.66
2024-05-09T21:15:40.814Z,100757.05
2024-05-09T21:18:41.776Z,100759.30
2024-05-09T21:21:42.759Z,100766.70
2024-05-09T21:24:43.837Z,100772.80
2024-05-09T21:27:44.810Z,100774.13
2024-05-09T21:30:45.780Z,100777.92
2024-05-09T21:33:46.959Z,100780.44
2024-05-09T21:36:47.968Z,100783.13
2024-05-09T21:39:48.812Z,100783.17
2024-05-09T21:42:49.866Z,100783.17
2024-05-09T21:45:50.870Z,100783.29
2024-05-09T21:48:51.873Z,100780.05
2024-05-09T21:51:52.930Z,100779.40
2024-05-09T21:54:53.815Z,100781.18
2024-05-09T21:57:54.775Z,100781.30
2024-05-09T22:00:55.879Z,100782.45
2024-05-09T22:03:56.978Z,100781.34
2024-05-09T22:06:57.839Z,100782.02
2024-05-09T22:09:58.854Z,100786.69
2024-05-09T22:12:59.919Z,100787.55
2024-05-09T22:15:53.865Z,100785.70
2024-05-09T22:18:40.934Z,100789.23
2024-05-09T22:21:41.895Z,100789.67
2024-05-09T22:24:42.907Z,100792.23
2024-05-09T22:27:43.886Z,100788.13
2024-05-09T22:30:44.902Z,100791.42
2024-05-09T22:33:48.149Z,100797.16
2024-05-09T22:36:48.950Z,100797.29
2024-05-09T22:39:49.917Z,100798.84
2024-05-09T22:42:44.014Z,100798.11
2024-05-09T22:45:44.975Z,100798.54
2024-05-09T22:48:46.038Z,100800.52
2024-05-09T22:51:46.942Z,100798.23
2024-05-09T22:54:47.928Z,100798.92
2024-05-09T22:57:49.045Z,100802.45
2024-05-09T23:00:50.088Z,100799.59
2024-05-09T23:03:52.041Z,100801.63
2024-05-09T23:06:56.007Z,100801.70
2024-05-09T23:09:59.974Z,100799.74
2024-05-09T23:13:01.058Z,100799.64
2024-05-09T23:16:01.980Z,100800.23
2024-05-09T23:19:03.121Z,100794.13
2024-05-09T23:22:04.033Z,100793.71
2024-05-09T23:25:05.077Z,100800.69
2024-05-09T23:28:06.338Z,100796.73
2024-05-09T23:31:07.027Z,100795.64
2024-05-09T23:34:08.230Z,100797.11
2024-05-09T23:37:09.092Z,100796.48
2024-05-09T23:40:10.146Z,100795.08
2024-05-09T23:43:13.373Z,100797.22
2024-05-09T23:46:14.069Z,100789.35
2024-05-09T23:49:15.095Z,100792.39
2024-05-09T23:52:16.091Z,100789.83
2024-05-09T23:55:17.200Z,100788.49
2024-05-09T23:58:18.059Z,100791.83
